Ytteroyane Fyr, Norway

2:21 AM CET on March 07, 2015 (GMT +0100)
Floro | Change Station
CLOSE
Current Station
Airport
Location: Floro,
Elevation: 30 ft
Nearby Weather Stations

Elev 30 ft 61.58 °N, 5.02 °E | Updated 31 minutes ago

Rain
Rain
41 °F
Feels Like 28 °F
N
44
Wind Variable Wind from South

Today
High -- | Low -- °F
--% Chance of Precip.
Yesterday
High -- | Low -- °F
Precip. -- in
7:25 AM 6:20 PM
Full, 99% visible
Pressure 29.53 in
Visibility -9999.0 miles
Clouds Mostly Cloudy 1900 ft
Overcast 2800 ft
Windchill 28 °F
Dew Point 37 °F
Humidity 87%
Rainfall 0.00 in
Snow Depth Not available.
UV 0 out of 12
Pollen Not available.
Air Quality Not available.
Flu Activity Not available.
METAR ENFL 070050Z AUTO 18038KT //// R07///// R25///// RA BKN019/// OVC028/// 05/03 Q1000

More Conditions Fewer Conditions

Pressure 29.53 in
Visibility -9999.0 miles
Clouds Mostly Cloudy 1900 ft
Overcast 2800 ft
Windchill 28 °F
Dew Point 37 °F
Humidity 87%
Rainfall 0.00 in
Snow Depth Not available.
UV 0 out of 12
Pollen Not available.
Air Quality Not available.
Flu Activity Not available.
METAR ENFL 070050Z AUTO 18038KT //// R07///// R25///// RA BKN019/// OVC028/// 05/03 Q1000

More Conditions Fewer Conditions

10-Day Weather Forecast

Almanac

Astronomy

Mar. 07, 2015 Rise Set
Actual Time
Civil Twilight
Nautical Twilight
Astronomical Twilight
Moon
Length of Visible Light
Length of Day
Tomorrow will be .
, % of the Moon is Illuminated

Today's Extremes

Country Highs Country Lows

Community

WunderPhotos

Upload Photos

1,803,482 photos uploaded!

WunderBlogs® & News

Nearby

Air Quality

  Air Quality AQ Index Pollutant
Not available.

Snow Depth

Station Depth Elevation

Earthquake Activity

City Distance Mag. Time & Date
Minimum magnitude displayed is 2.5.

Coastal Water Temperatures

Place Temperature

Nearby Weather Stations